createdAt,value
2023-05-14T00:00:47.620Z,78.80
2023-05-14T00:03:16.887Z,78.90
2023-05-14T00:05:45.886Z,78.90
2023-05-14T00:08:16.624Z,78.90
2023-05-14T00:10:45.897Z,79.00
2023-05-14T00:13:14.252Z,79.00
2023-05-14T00:15:43.096Z,78.90
2023-05-14T00:18:12.474Z,78.80
2023-05-14T00:23:50.884Z,78.80
2023-05-14T00:26:20.469Z,78.80
2023-05-14T00:28:50.309Z,79.00
2023-05-14T00:31:19.108Z,79.00
2023-05-14T00:33:48.543Z,78.90
2023-05-14T00:36:17.333Z,79.00
2023-05-14T00:38:45.841Z,78.90
2023-05-14T00:41:16.309Z,79.00
2023-05-14T00:43:44.850Z,78.90
2023-05-14T00:46:19.028Z,78.90
2023-05-14T00:48:48.112Z,79.00
2023-05-14T00:51:17.599Z,78.90
2023-05-14T00:53:47.258Z,78.90
2023-05-14T00:56:17.973Z,78.90
2023-05-14T00:58:47.278Z,78.90
2023-05-14T01:01:17.061Z,78.80
2023-05-14T01:03:46.912Z,78.90
2023-05-14T01:06:22.523Z,79.00
2023-05-14T01:09:01.031Z,79.10
2023-05-14T01:11:35.715Z,79.10
2023-05-14T01:14:14.643Z,79.20
2023-05-14T01:16:45.601Z,79.20
2023-05-14T01:19:23.941Z,79.20
2023-05-14T01:22:12.664Z,79.30
2023-05-14T01:24:41.841Z,79.30
2023-05-14T01:27:23.963Z,79.30
2023-05-14T01:29:58.700Z,79.30
2023-05-14T01:32:28.016Z,79.10
2023-05-14T01:34:58.472Z,79.20
2023-05-14T01:37:30.890Z,79.20
2023-05-14T01:40:02.386Z,79.20
2023-05-14T01:42:31.337Z,79.30
2023-05-14T01:45:01.105Z,79.30
2023-05-14T01:47:29.592Z,79.40
2023-05-14T01:50:00.803Z,79.40
2023-05-14T01:52:31.767Z,79.40
2023-05-14T01:55:00.946Z,79.50
2023-05-14T01:57:29.586Z,79.40
2023-05-14T01:59:58.250Z,79.30
2023-05-14T02:02:27.063Z,79.30
2023-05-14T02:04:55.365Z,79.20
2023-05-14T02:07:24.140Z,79.30
2023-05-14T02:09:55.975Z,79.30
2023-05-14T02:12:24.815Z,79.20
2023-05-14T02:14:53.670Z,79.20
2023-05-14T02:17:22.875Z,79.10
2023-05-14T02:19:51.473Z,79.10
2023-05-14T02:22:20.182Z,79.00
2023-05-14T02:24:50.075Z,79.00
2023-05-14T02:27:22.284Z,79.00
2023-05-14T02:29:53.207Z,79.00
2023-05-14T02:32:21.953Z,78.90
2023-05-14T02:34:50.504Z,78.90
2023-05-14T02:37:18.967Z,78.90
2023-05-14T02:39:47.191Z,78.90
2023-05-14T02:42:17.694Z,78.90
2023-05-14T02:44:48.035Z,78.90
2023-05-14T02:47:16.288Z,79.00
2023-05-14T02:49:44.746Z,79.10
2023-05-14T02:52:13.995Z,79.10
2023-05-14T02:54:43.194Z,79.10
2023-05-14T02:57:12.183Z,79.00
2023-05-14T02:59:40.846Z,79.00
2023-05-14T03:02:11.991Z,79.00
2023-05-14T03:04:42.513Z,79.00
2023-05-14T03:07:11.507Z,78.90
2023-05-14T03:09:39.721Z,78.90
2023-05-14T03:12:10.097Z,78.90
2023-05-14T03:14:38.515Z,78.80
2023-05-14T03:17:07.227Z,79.00
2023-05-14T03:19:37.600Z,79.00
2023-05-14T03:22:08.733Z,79.10
2023-05-14T03:24:38.427Z,79.10
2023-05-14T03:27:06.999Z,79.10
2023-05-14T03:29:36.477Z,79.20
2023-05-14T03:32:05.146Z,79.20
2023-05-14T03:34:33.802Z,79.30
2023-05-14T03:37:03.511Z,79.30
2023-05-14T03:39:32.398Z,79.40
2023-05-14T03:42:01.198Z,79.50
2023-05-14T03:44:30.261Z,79.50
2023-05-14T03:46:58.815Z,79.40
2023-05-14T03:49:28.112Z,79.40
2023-05-14T03:51:59.387Z,79.40
2023-05-14T03:54:29.371Z,79.40
2023-05-14T03:56:58.018Z,79.40
2023-05-14T03:59:26.657Z,79.50
2023-05-14T04:01:56.124Z,79.50
2023-05-14T04:04:24.694Z,79.50
2023-05-14T04:06:53.315Z,79.50
2023-05-14T04:09:21.582Z,79.60
2023-05-14T04:11:52.086Z,79.60
2023-05-14T04:14:20.434Z,79.30
2023-05-14T04:16:49.953Z,79.30
2023-05-14T04:19:18.874Z,79.30
2023-05-14T04:21:47.420Z,79.30
2023-05-14T04:24:15.687Z,79.20
2023-05-14T04:26:44.385Z,78.80
2023-05-14T04:29:14.571Z,78.90
2023-05-14T04:31:43.180Z,78.70
2023-05-14T04:34:11.635Z,78.30
2023-05-14T04:36:40.271Z,78.80
2023-05-14T04:39:10.217Z,78.40
2023-05-14T04:41:38.813Z,78.20
2023-05-14T04:44:08.219Z,78.00
2023-05-14T04:46:38.358Z,78.10
2023-05-14T04:49:06.650Z,78.10
2023-05-14T04:51:36.014Z,78.10
2023-05-14T04:54:04.997Z,78.30
2023-05-14T04:56:33.320Z,78.30
2023-05-14T04:59:01.856Z,78.30
2023-05-14T05:01:30.686Z,78.40
2023-05-14T05:04:00.754Z,78.40
2023-05-14T05:06:29.459Z,78.30
2023-05-14T05:09:00.530Z,78.20
2023-05-14T05:11:30.771Z,78.20
2023-05-14T05:13:59.699Z,78.10
2023-05-14T05:16:29.228Z,77.90
2023-05-14T05:18:57.704Z,78.10
2023-05-14T05:21:28.760Z,77.90
2023-05-14T05:23:57.827Z,77.90
2023-05-14T05:26:26.916Z,77.70
2023-05-14T05:28:58.181Z,77.60
2023-05-14T05:31:26.554Z,77.80
2023-05-14T05:33:55.280Z,77.50
2023-05-14T05:36:24.175Z,77.40
2023-05-14T05:38:54.496Z,77.30
2023-05-14T05:41:23.131Z,77.40
2023-05-14T05:43:51.454Z,76.80
2023-05-14T05:46:21.282Z,76.70
2023-05-14T05:48:49.481Z,76.30
2023-05-14T05:51:17.824Z,76.30
2023-05-14T05:53:46.275Z,76.00
2023-05-14T05:56:16.528Z,76.10
2023-05-14T05:58:45.085Z,75.90
2023-05-14T06:01:13.332Z,75.80
2023-05-14T06:03:42.047Z,75.60
2023-05-14T06:06:12.556Z,75.90
2023-05-14T06:08:41.234Z,74.70
2023-05-14T06:11:09.864Z,74.10
2023-05-14T06:13:40.007Z,73.90
2023-05-14T06:16:10.130Z,73.10
2023-05-14T06:18:38.499Z,71.70
2023-05-14T06:21:07.024Z,69.30
2023-05-14T06:23:35.959Z,66.00
2023-05-14T06:26:05.222Z,61.80
2023-05-14T06:28:33.601Z,59.50
2023-05-14T06:31:03.552Z,56.50
2023-05-14T06:33:31.894Z,54.30
2023-05-14T06:36:00.912Z,51.70
2023-05-14T06:38:29.366Z,50.90
2023-05-14T06:40:57.982Z,48.90
2023-05-14T06:43:26.296Z,49.80
2023-05-14T06:45:54.680Z,49.50
2023-05-14T06:48:24.669Z,48.50
2023-05-14T06:50:53.149Z,48.50
2023-05-14T06:53:21.964Z,47.60
2023-05-14T06:55:50.059Z,45.50
2023-05-14T06:58:18.306Z,46.50
2023-05-14T07:00:46.346Z,48.30
2023-05-14T07:03:17.082Z,48.10
2023-05-14T07:05:46.740Z,50.80
2023-05-14T07:08:15.060Z,49.70
2023-05-14T07:10:43.358Z,49.20
2023-05-14T07:13:12.450Z,50.60
2023-05-14T07:15:42.224Z,50.10
2023-05-14T07:18:11.044Z,52.00
2023-05-14T07:20:39.419Z,51.10
2023-05-14T07:23:11.044Z,50.70
2023-05-14T07:25:40.237Z,49.30
2023-05-14T07:28:08.712Z,50.20
2023-05-14T07:30:37.432Z,48.40
2023-05-14T07:33:06.426Z,48.90
2023-05-14T07:35:34.973Z,48.90
2023-05-14T07:38:06.092Z,48.30
2023-05-14T07:40:35.998Z,48.10
2023-05-14T07:43:04.349Z,47.50
2023-05-14T07:45:33.569Z,47.40
2023-05-14T07:48:02.413Z,45.70
2023-05-14T07:50:31.469Z,44.30
2023-05-14T07:52:59.973Z,42.60
2023-05-14T07:55:28.634Z,40.90
2023-05-14T07:57:58.891Z,41.70
2023-05-14T08:00:27.489Z,41.10
2023-05-14T08:02:57.244Z,39.90
2023-05-14T08:05:26.777Z,37.60
2023-05-14T08:07:55.107Z,39.00
2023-05-14T08:10:24.080Z,39.60
2023-05-14T08:12:52.872Z,41.30
2023-05-14T08:15:23.676Z,41.50
2023-05-14T08:17:53.243Z,41.30
2023-05-14T08:20:24.795Z,42.70
2023-05-14T08:22:54.100Z,43.20
2023-05-14T08:25:23.081Z,42.90
2023-05-14T08:27:51.503Z,42.40
2023-05-14T08:30:22.063Z,42.90
2023-05-14T08:32:52.837Z,43.20
2023-05-14T08:35:21.228Z,42.90
2023-05-14T08:37:52.343Z,43.50
2023-05-14T08:40:21.445Z,41.80
2023-05-14T08:42:54.906Z,40.60
2023-05-14T08:45:31.107Z,38.50
2023-05-14T08:48:02.779Z,38.10
2023-05-14T08:50:31.786Z,37.60
2023-05-14T08:53:01.198Z,39.30
2023-05-14T08:55:31.786Z,40.80
2023-05-14T08:58:01.320Z,42.30
2023-05-14T09:00:29.925Z,43.70
2023-05-14T09:03:01.315Z,44.50
2023-05-14T09:05:29.836Z,43.30
2023-05-14T09:07:59.640Z,43.20
2023-05-14T09:10:30.081Z,43.60
2023-05-14T09:12:59.116Z,44.30
2023-05-14T09:15:30.484Z,43.80
2023-05-14T09:18:02.284Z,45.00
2023-05-14T09:20:32.068Z,42.20
2023-05-14T09:23:02.232Z,42.00
2023-05-14T09:25:33.249Z,43.90
2023-05-14T09:30:53.443Z,44.80
2023-05-14T09:33:29.730Z,42.80
2023-05-14T09:36:01.639Z,39.10
2023-05-14T09:38:31.623Z,37.00
2023-05-14T09:41:02.149Z,36.80
2023-05-14T09:43:31.095Z,34.00
2023-05-14T09:45:59.652Z,34.50
2023-05-14T09:48:30.126Z,36.50
2023-05-14T09:50:58.519Z,36.80
2023-05-14T09:53:30.589Z,38.30
2023-05-14T09:55:59.935Z,38.70
2023-05-14T09:58:29.133Z,39.00
2023-05-14T10:01:01.183Z,40.70
2023-05-14T10:03:32.362Z,41.40
2023-05-14T10:06:10.715Z,42.80
2023-05-14T10:08:42.939Z,42.40
2023-05-14T10:11:17.805Z,42.40
2023-05-14T10:13:55.048Z,43.40
2023-05-14T10:16:35.700Z,43.70
2023-05-14T10:19:09.928Z,45.40
2023-05-14T10:21:39.422Z,46.70
2023-05-14T10:24:09.561Z,48.00
2023-05-14T10:26:41.449Z,48.50
2023-05-14T10:29:12.595Z,48.00
2023-05-14T10:31:53.747Z,49.20
2023-05-14T10:34:41.330Z,48.90
2023-05-14T10:37:11.823Z,50.30
2023-05-14T10:39:48.569Z,51.50
2023-05-14T10:42:19.557Z,51.40
2023-05-14T10:44:52.564Z,51.60
2023-05-14T10:47:21.447Z,51.70
2023-05-14T10:49:53.140Z,53.10
2023-05-14T10:52:22.803Z,53.40
2023-05-14T10:54:53.144Z,52.00
2023-05-14T10:57:23.386Z,53.50
2023-05-14T10:59:55.117Z,52.60
2023-05-14T11:02:26.600Z,52.10
2023-05-14T11:05:03.677Z,51.90
2023-05-14T11:07:33.971Z,52.40
2023-05-14T11:10:08.621Z,51.90
2023-05-14T11:12:39.008Z,50.70
2023-05-14T11:15:10.910Z,50.60
2023-05-14T11:17:41.807Z,51.10
2023-05-14T11:20:13.564Z,51.90
2023-05-14T11:22:44.705Z,51.80
2023-05-14T11:25:15.286Z,51.00
2023-05-14T11:27:46.440Z,52.50
2023-05-14T11:30:17.189Z,51.20
2023-05-14T11:32:48.020Z,50.80
2023-05-14T11:35:19.000Z,49.20
2023-05-14T11:37:52.872Z,49.80
2023-05-14T11:40:22.249Z,49.90
2023-05-14T11:42:54.030Z,48.40
2023-05-14T11:45:27.631Z,49.50
2023-05-14T11:48:02.033Z,47.50
2023-05-14T11:53:47.465Z,45.60
2023-05-14T11:56:16.446Z,45.10
2023-05-14T11:58:58.298Z,44.50
2023-05-14T12:01:31.735Z,43.50
2023-05-14T12:04:04.661Z,43.70
2023-05-14T12:06:51.209Z,43.40
2023-05-14T12:09:22.314Z,43.70
2023-05-14T12:11:53.191Z,44.40
2023-05-14T12:14:25.686Z,43.80
2023-05-14T12:17:01.936Z,44.80
2023-05-14T12:19:48.380Z,44.60
2023-05-14T12:22:20.367Z,45.30
2023-05-14T12:24:56.617Z,44.40
2023-05-14T12:27:34.149Z,44.30
2023-05-14T12:35:49.210Z,42.40
2023-05-14T12:38:32.244Z,44.90
2023-05-14T12:41:03.522Z,43.50
2023-05-14T12:43:32.208Z,42.10
2023-05-14T12:46:01.435Z,41.30
2023-05-14T12:48:31.426Z,42.50
2023-05-14T12:51:01.337Z,41.80
2023-05-14T12:53:30.146Z,41.50
2023-05-14T12:55:59.036Z,41.80
2023-05-14T12:58:30.463Z,41.80
2023-05-14T13:01:00.243Z,40.70
2023-05-14T13:03:31.854Z,40.40
2023-05-14T13:06:01.575Z,40.20
2023-05-14T13:08:30.398Z,38.90
2023-05-14T13:11:00.346Z,38.10
2023-05-14T13:13:39.084Z,37.70
2023-05-14T13:16:08.255Z,37.80
2023-05-14T13:18:37.698Z,37.20
2023-05-14T13:21:07.277Z,37.60
2023-05-14T13:23:37.048Z,38.00
2023-05-14T13:26:06.446Z,37.80
2023-05-14T13:28:36.905Z,37.70
2023-05-14T13:31:08.259Z,36.30
2023-05-14T13:33:38.557Z,35.60
2023-05-14T13:36:08.506Z,35.40
2023-05-14T13:38:38.333Z,34.40
2023-05-14T13:41:07.555Z,34.20
2023-05-14T13:43:38.466Z,34.50
2023-05-14T13:46:20.116Z,34.10
2023-05-14T13:55:15.210Z,33.50
2023-05-14T14:01:28.050Z,32.10
2023-05-14T14:03:59.468Z,31.80
2023-05-14T14:06:29.693Z,31.90
2023-05-14T14:08:58.850Z,32.20
2023-05-14T14:11:29.684Z,33.10
2023-05-14T14:14:00.681Z,33.70
2023-05-14T14:16:32.693Z,32.60
2023-05-14T14:19:03.985Z,32.30
2023-05-14T14:21:33.908Z,32.40
2023-05-14T14:24:04.597Z,33.00
2023-05-14T14:26:37.021Z,34.90
2023-05-14T14:29:05.697Z,36.40
2023-05-14T14:31:34.798Z,37.50
2023-05-14T14:34:06.867Z,37.00
2023-05-14T14:36:37.667Z,35.80
2023-05-14T14:39:07.654Z,34.70
2023-05-14T14:41:40.595Z,34.10
2023-05-14T14:44:09.955Z,35.00
2023-05-14T14:46:38.871Z,34.60
2023-05-14T14:49:09.565Z,33.80
2023-05-14T14:51:38.468Z,33.40
2023-05-14T14:54:07.238Z,33.90
2023-05-14T14:56:37.491Z,35.20
2023-05-14T14:59:06.095Z,32.80
2023-05-14T15:01:34.523Z,35.00
2023-05-14T15:04:04.242Z,33.90
2023-05-14T15:06:36.627Z,34.90
2023-05-14T15:09:07.329Z,33.90
2023-05-14T15:11:37.439Z,33.60
2023-05-14T15:14:07.579Z,33.40
2023-05-14T15:16:37.130Z,33.40
2023-05-14T15:19:06.377Z,33.90
2023-05-14T15:21:37.729Z,34.10
2023-05-14T15:24:07.382Z,34.90
2023-05-14T15:26:38.760Z,34.70
2023-05-14T15:29:09.348Z,35.70
2023-05-14T15:31:39.173Z,36.20
2023-05-14T15:34:13.944Z,36.70
2023-05-14T15:36:44.601Z,36.20
2023-05-14T15:39:16.057Z,35.90
2023-05-14T15:41:49.127Z,35.40
2023-05-14T15:44:17.836Z,37.50
2023-05-14T15:46:46.550Z,38.00
2023-05-14T15:49:16.493Z,37.60
2023-05-14T15:51:48.250Z,37.30
2023-05-14T15:54:17.413Z,36.60
2023-05-14T15:56:48.057Z,36.80
2023-05-14T15:59:17.954Z,36.10
2023-05-14T16:01:56.755Z,36.20
2023-05-14T16:04:26.248Z,35.30
2023-05-14T16:07:02.581Z,34.90
2023-05-14T16:09:31.546Z,34.40
2023-05-14T16:12:01.178Z,35.00
2023-05-14T16:14:33.439Z,35.10
2023-05-14T16:17:02.336Z,35.10
2023-05-14T16:19:33.248Z,35.20
2023-05-14T16:22:06.714Z,34.00
2023-05-14T16:24:36.602Z,34.70
2023-05-14T16:27:06.114Z,34.40
2023-05-14T16:29:34.987Z,35.90
2023-05-14T16:32:03.952Z,38.80
2023-05-14T16:34:32.736Z,42.00
2023-05-14T16:37:01.228Z,44.20
2023-05-14T16:39:34.011Z,46.30
2023-05-14T16:42:02.536Z,48.20
2023-05-14T16:44:31.549Z,49.30
2023-05-14T16:47:00.151Z,48.70
2023-05-14T16:49:33.658Z,49.10
2023-05-14T16:52:02.746Z,49.50
2023-05-14T16:54:36.651Z,50.10
2023-05-14T16:57:08.978Z,50.00
2023-05-14T16:59:38.866Z,49.90
2023-05-14T17:02:11.947Z,50.20
2023-05-14T17:04:43.451Z,51.40
2023-05-14T17:07:13.630Z,52.00
2023-05-14T17:09:47.115Z,52.70
2023-05-14T17:12:17.282Z,53.10
2023-05-14T17:14:47.011Z,54.20
2023-05-14T17:17:16.230Z,54.80
2023-05-14T17:19:49.718Z,55.80
2023-05-14T17:22:22.458Z,56.60
2023-05-14T17:24:54.679Z,57.20
2023-05-14T17:27:36.272Z,57.90
2023-05-14T17:30:08.401Z,58.90
2023-05-14T17:32:39.442Z,59.20
2023-05-14T17:35:09.802Z,59.70
2023-05-14T17:37:52.179Z,59.80
2023-05-14T17:40:27.832Z,60.10
2023-05-14T17:42:59.812Z,60.50
2023-05-14T17:45:32.163Z,60.10
2023-05-14T17:48:05.834Z,60.20
2023-05-14T17:50:34.610Z,60.20
2023-05-14T17:53:06.418Z,60.40
2023-05-14T17:55:43.500Z,61.00
2023-05-14T17:58:16.791Z,61.30
2023-05-14T18:00:47.229Z,61.50
2023-05-14T18:03:18.734Z,61.70
2023-05-14T18:05:50.890Z,62.00
2023-05-14T18:08:21.994Z,62.00
2023-05-14T18:10:54.419Z,62.00
2023-05-14T18:13:22.895Z,62.10
2023-05-14T18:15:54.375Z,62.60
2023-05-14T18:18:24.394Z,62.30
2023-05-14T18:20:54.324Z,63.00
2023-05-14T18:23:23.483Z,63.50
2023-05-14T18:25:59.007Z,64.30
2023-05-14T18:28:30.722Z,64.50
2023-05-14T18:30:59.485Z,64.20
2023-05-14T18:33:29.485Z,64.30
2023-05-14T18:35:59.972Z,64.40
2023-05-14T18:38:33.148Z,65.30
2023-05-14T18:41:03.451Z,65.90
2023-05-14T18:43:33.169Z,65.50
2023-05-14T18:46:01.963Z,64.80
2023-05-14T18:48:34.868Z,64.70
2023-05-14T18:54:05.076Z,65.60
2023-05-14T18:56:35.933Z,66.30
2023-05-14T18:59:08.496Z,67.00
2023-05-14T19:01:37.437Z,67.80
2023-05-14T19:04:07.793Z,68.40
2023-05-14T19:06:41.329Z,68.60
2023-05-14T19:09:17.731Z,68.90
2023-05-14T19:11:55.608Z,69.20
2023-05-14T19:14:26.181Z,69.30
2023-05-14T19:16:55.795Z,69.40
2023-05-14T19:19:28.793Z,69.40
2023-05-14T19:22:01.292Z,69.60
2023-05-14T19:24:30.254Z,69.50
2023-05-14T19:27:00.381Z,69.60
2023-05-14T19:29:29.330Z,69.30
2023-05-14T19:32:00.000Z,69.20
2023-05-14T19:34:29.047Z,69.00
2023-05-14T19:36:58.682Z,69.20
2023-05-14T19:39:36.811Z,69.40
2023-05-14T19:42:17.855Z,69.70
2023-05-14T19:44:52.268Z,69.90
2023-05-14T19:47:20.723Z,70.30
2023-05-14T19:49:50.673Z,70.60
2023-05-14T19:52:22.308Z,71.10
2023-05-14T19:54:58.517Z,71.40
2023-05-14T19:57:30.979Z,71.60
2023-05-14T19:59:59.766Z,71.80
2023-05-14T20:02:32.024Z,72.00
2023-05-14T20:05:01.910Z,72.10
2023-05-14T20:07:31.296Z,72.30
2023-05-14T20:10:01.776Z,72.40
2023-05-14T20:12:41.960Z,72.40
2023-05-14T20:15:14.285Z,72.40
2023-05-14T20:17:44.262Z,72.50
2023-05-14T20:20:14.731Z,72.70
2023-05-14T20:22:44.867Z,72.60
2023-05-14T20:25:15.332Z,72.70
2023-05-14T20:27:47.892Z,73.00
2023-05-14T20:30:20.922Z,73.00
2023-05-14T20:32:55.476Z,73.00
2023-05-14T20:35:24.351Z,73.00
2023-05-14T20:37:55.106Z,73.10
2023-05-14T20:40:26.870Z,73.20
2023-05-14T20:43:02.505Z,73.20
2023-05-14T20:45:33.264Z,73.20
2023-05-14T20:48:07.986Z,73.20
2023-05-14T20:50:45.842Z,73.30
2023-05-14T20:53:17.975Z,73.30
2023-05-14T20:55:47.192Z,73.40
2023-05-14T20:58:18.647Z,73.30
2023-05-14T21:00:48.237Z,73.40
2023-05-14T21:03:18.987Z,73.30
2023-05-14T21:08:33.015Z,73.50
2023-05-14T21:11:03.255Z,73.70
2023-05-14T21:13:34.747Z,73.50
2023-05-14T21:16:04.238Z,73.70
2023-05-14T21:18:33.816Z,73.80
2023-05-14T21:21:02.968Z,74.00
2023-05-14T21:23:36.832Z,74.20
2023-05-14T21:26:07.077Z,74.30
2023-05-14T21:28:42.781Z,74.40
2023-05-14T21:31:15.009Z,74.30
2023-05-14T21:33:46.439Z,74.60
2023-05-14T21:36:18.099Z,74.60
2023-05-14T21:38:48.797Z,74.60
2023-05-14T21:41:19.048Z,74.60
2023-05-14T21:43:49.470Z,74.70
2023-05-14T21:46:20.709Z,74.80
2023-05-14T21:48:55.593Z,75.00
2023-05-14T21:51:25.859Z,75.10
2023-05-14T21:53:56.950Z,75.30
2023-05-14T21:56:26.550Z,75.30
2023-05-14T21:58:57.242Z,75.70
2023-05-14T22:01:26.463Z,75.60
2023-05-14T22:03:57.730Z,75.70
2023-05-14T22:06:28.185Z,75.80
2023-05-14T22:09:07.401Z,76.00
2023-05-14T22:11:36.021Z,76.20
2023-05-14T22:14:09.299Z,76.20
2023-05-14T22:16:40.604Z,76.20
2023-05-14T22:19:09.269Z,76.20
2023-05-14T22:21:38.736Z,76.30
2023-05-14T22:24:07.614Z,76.40
2023-05-14T22:26:37.729Z,76.40
2023-05-14T22:29:07.731Z,76.60
2023-05-14T22:31:40.519Z,76.60
2023-05-14T22:34:10.316Z,76.60
2023-05-14T22:36:45.037Z,76.80
2023-05-14T22:39:15.120Z,76.90
2023-05-14T22:41:45.912Z,77.10
2023-05-14T22:44:19.438Z,77.20
2023-05-14T22:46:50.700Z,77.20
2023-05-14T22:49:21.732Z,77.30
2023-05-14T22:51:54.274Z,77.30
2023-05-14T22:54:22.843Z,77.30
2023-05-14T22:56:52.866Z,77.30
2023-05-14T22:59:25.704Z,77.40
2023-05-14T23:01:54.379Z,77.60
2023-05-14T23:04:24.872Z,77.50
2023-05-14T23:06:53.852Z,77.30
2023-05-14T23:09:23.709Z,77.50
2023-05-14T23:11:55.853Z,77.50
2023-05-14T23:14:26.499Z,77.70
2023-05-14T23:16:56.812Z,77.60
2023-05-14T23:19:25.090Z,77.70
2023-05-14T23:21:53.751Z,77.60
2023-05-14T23:24:23.535Z,77.80
2023-05-14T23:26:52.200Z,77.70
2023-05-14T23:29:22.368Z,77.70
2023-05-14T23:31:52.281Z,77.90
2023-05-14T23:34:23.608Z,77.80
2023-05-14T23:36:54.441Z,77.90
2023-05-14T23:39:24.210Z,77.90
2023-05-14T23:41:54.292Z,77.90
2023-05-14T23:44:23.077Z,77.90
2023-05-14T23:46:53.631Z,78.10
2023-05-14T23:49:27.103Z,78.30
2023-05-14T23:52:00.126Z,78.20
2023-05-14T23:54:28.815Z,78.20
2023-05-14T23:56:57.663Z,78.20
2023-05-14T23:59:28.836Z,78.10
